Time;durP1;ratioP1;P1;durP2;ratioP2;P2;SDS_P1;SDS_P2;PMS_P1;PMS_P2;Temp;Humidity;BMP_temperature;BMP_pressure;BME280_temperature;BME280_humidity;BME280_pressure;Samples;Min_cycle;Max_cycle;Signal;HPM_P1;HPM_P2
2022/08/22 00:04:33;;;;;;;15.38;8.98;;;;;;;17.84;100.00;96973.50;10288221;28;19999;-59
2022/08/22 00:10:07;;;;;;;18.10;9.90;;;;;;;17.84;100.00;96969.09;10287544;28;20069;-59
2022/08/22 00:15:13;;;;;;;16.17;9.95;;;;;;;17.86;100.00;96962.03;10287893;28;20061;-59
2022/08/22 00:20:27;;;;;;;19.38;12.27;;;;;;;17.79;100.00;96944.84;10287478;28;20089;-59
2022/08/22 00:25:39;;;;;;;24.30;12.43;;;;;;;17.81;100.00;96942.16;10287685;28;20087;-59
2022/08/22 00:31:08;;;;;;;24.77;13.30;;;;;;;17.87;100.00;96957.63;10288155;28;20085;-58
2022/08/22 00:36:33;;;;;;;21.45;12.85;;;;;;;17.85;100.00;96956.84;10294970;28;20104;-58
2022/08/22 00:41:38;;;;;;;23.70;12.82;;;;;;;17.88;100.00;96948.84;10294556;28;20062;-58
2022/08/22 00:46:58;;;;;;;23.48;12.65;;;;;;;17.82;100.00;96956.97;10294645;28;20382;-59
2022/08/22 00:52:03;;;;;;;19.00;11.80;;;;;;;17.78;100.00;96961.50;10293672;28;20516;-58
2022/08/22 00:57:25;;;;;;;19.58;10.93;;;;;;;17.74;100.00;96963.38;10294762;28;20515;-59
2022/08/22 01:02:34;;;;;;;20.30;10.20;;;;;;;17.76;100.00;96964.19;10286300;28;20077;-59
2022/08/22 01:07:53;;;;;;;16.20;9.98;;;;;;;17.84;100.00;96965.63;10293388;28;20084;-59
2022/08/22 01:13:10;;;;;;;15.13;10.00;;;;;;;17.79;100.00;96959.72;10293381;28;20583;-59
2022/08/22 01:18:38;;;;;;;13.80;9.18;;;;;;;17.81;100.00;96955.28;10293934;28;20088;-59
2022/08/22 01:23:49;;;;;;;13.68;8.73;;;;;;;17.83;100.00;96961.31;10278088;28;20073;-58
2022/08/22 01:29:23;;;;;;;17.30;10.02;;;;;;;17.87;100.00;96968.13;10292802;28;20503;-58
2022/08/22 01:34:25;;;;;;;19.95;10.85;;;;;;;17.87;100.00;96957.63;10285306;28;20088;-58
2022/08/22 01:39:43;;;;;;;17.70;10.32;;;;;;;17.84;100.00;96950.72;10292799;28;20073;-58
2022/08/22 01:45:11;;;;;;;14.55;9.70;;;;;;;17.91;100.00;96954.78;10291559;28;20367;-58
2022/08/22 01:50:24;;;;;;;17.67;11.40;;;;;;;17.86;100.00;96950.69;10274686;28;20073;-57
2022/08/22 01:55:33;;;;;;;18.42;11.32;;;;;;;17.82;100.00;96947.31;10292019;28;20072;-57
2022/08/22 02:01:08;;;;;;;17.65;10.70;;;;;;;17.86;100.00;96933.16;10291791;28;20104;-60
2022/08/22 02:06:17;;;;;;;16.70;10.27;;;;;;;18.00;100.00;96934.31;10270051;28;20076;-57
2022/08/22 02:11:46;;;;;;;14.50;9.52;;;;;;;18.03;100.00;96932.41;10290883;28;20511;-57
2022/08/22 02:17:09;;;;;;;17.33;10.13;;;;;;;18.02;100.00;96930.72;10291121;28;20494;-57
2022/08/22 02:22:33;;;;;;;14.60;9.20;;;;;;;17.96;100.00;96936.22;10290910;28;20061;-57
2022/08/22 02:27:37;;;;;;;14.70;9.63;;;;;;;17.92;100.00;96934.69;10290693;28;20077;-57
2022/08/22 02:32:39;;;;;;;14.55;9.20;;;;;;;17.86;100.00;96934.94;10290385;28;20076;-57
2022/08/22 02:38:15;;;;;;;17.65;9.43;;;;;;;17.82;100.00;96939.44;10289976;28;20081;-57
2022/08/22 02:43:19;;;;;;;18.05;10.98;;;;;;;17.76;100.00;96948.44;10289776;28;20069;-56
2022/08/22 02:48:18;;;;;;;20.88;11.18;;;;;;;17.63;100.00;96949.00;10290903;28;20081;-56
2022/08/22 02:53:31;;;;;;;22.08;12.95;;;;;;;17.59;100.00;96953.53;10290480;28;20109;-57
2022/08/22 02:58:48;;;;;;;23.75;12.88;;;;;;;17.63;100.00;96949.84;10290028;28;20068;-58
2022/08/22 03:03:49;;;;;;;22.02;12.57;;;;;;;17.64;100.00;96945.47;10289998;28;20463;-58
2022/08/22 03:09:29;;;;;;;22.00;13.48;;;;;;;17.64;100.00;96941.06;10289715;28;20073;-58
2022/08/22 03:14:42;;;;;;;24.85;13.45;;;;;;;17.68;100.00;96953.16;10269248;28;20104;-57
2022/08/22 03:20:45;;;;;;;19.75;10.48;;;;;;;17.73;100.00;96945.94;10289718;28;20574;-57
2022/08/22 03:25:51;;;;;;;17.60;9.43;;;;;;;17.74;100.00;96950.25;10200691;28;20078;-57
2022/08/22 03:31:08;;;;;;;16.67;9.85;;;;;;;17.69;100.00;96954.84;10278236;28;20085;-57
2022/08/22 03:36:22;;;;;;;15.38;8.68;;;;;;;17.60;100.00;96943.88;10289288;28;20085;-57
2022/08/22 03:41:40;;;;;;;13.77;9.32;;;;;;;17.59;100.00;96956.16;10288145;28;20080;-57
2022/08/22 03:47:00;;;;;;;16.40;9.38;;;;;;;17.55;100.00;96957.19;10288687;28;20062;-57
2022/08/22 03:52:11;;;;;;;17.92;10.50;;;;;;;17.49;100.00;96958.28;10288877;28;20074;-57
2022/08/22 03:57:40;;;;;;;17.23;10.60;;;;;;;17.45;100.00;96961.97;10288928;28;20081;-58
2022/08/22 04:02:48;;;;;;;19.83;11.87;;;;;;;17.45;100.00;96961.09;10288220;28;20061;-57
2022/08/22 04:08:12;;;;;;;16.13;9.33;;;;;;;17.47;100.00;96967.13;10292882;28;20530;-58
2022/08/22 04:13:52;;;;;;;16.23;10.40;;;;;;;17.46;100.00;96970.69;10296553;28;20476;-57
2022/08/22 04:19:02;;;;;;;;;;;;;;;17.49;100.00;96974.03;10290904;28;20077;-57
2022/08/22 04:24:19;;;;;;;14.23;9.00;;;;;;;17.56;100.00;96979.88;10295371;28;19949;-57
2022/08/22 04:29:34;;;;;;;14.65;9.18;;;;;;;17.61;100.00;96987.56;10295309;28;20476;-57
2022/08/22 04:34:39;;;;;;;14.73;9.18;;;;;;;17.67;100.00;96988.16;10295184;28;20088;-57
2022/08/22 04:39:47;;;;;;;12.38;8.27;;;;;;;17.74;100.00;96994.84;10295335;28;20065;-57
2022/08/22 04:45:03;;;;;;;14.75;9.02;;;;;;;17.85;100.00;96997.06;10294783;28;20072;-57
2022/08/22 04:50:33;;;;;;;14.00;8.60;;;;;;;17.94;100.00;97003.69;10294718;28;20077;-57
2022/08/22 04:55:53;;;;;;;13.73;8.90;;;;;;;18.02;100.00;97003.38;10284173;28;20141;-57
2022/08/22 05:01:24;;;;;;;16.60;9.07;;;;;;;18.06;100.00;97016.31;10291679;28;20500;-57
2022/08/22 05:06:27;;;;;;;52.33;15.50;;;;;;;18.05;100.00;97003.22;10305645;28;20065;-57
2022/08/22 05:11:28;;;;;;;27.77;11.60;;;;;;;18.09;100.00;97024.03;10291333;28;20097;-57
2022/08/22 05:16:39;;;;;;;13.18;9.07;;;;;;;18.10;100.00;97024.88;10289772;28;20073;-57
2022/08/22 05:21:40;;;;;;;13.98;8.05;;;;;;;18.18;100.00;97023.66;10288866;28;20064;-57
2022/08/22 05:26:47;;;;;;;12.85;8.18;;;;;;;18.21;100.00;97034.94;10291670;28;20506;-57
2022/08/22 05:31:53;;;;;;;14.77;8.85;;;;;;;18.42;100.00;97018.25;10263517;28;20069;-57
2022/08/22 05:37:03;;;;;;;13.38;8.90;;;;;;;18.66;100.00;97021.53;10260892;28;20089;-57
2022/08/22 05:42:03;;;;;;;16.73;9.27;;;;;;;18.68;100.00;97019.72;10274807;28;20080;-57
2022/08/22 05:47:34;;;;;;;13.50;8.55;;;;;;;18.71;100.00;97018.72;10284078;28;20061;-57
2022/08/22 05:52:55;;;;;;;14.43;9.07;;;;;;;18.92;100.00;97022.16;10291499;28;20081;-57
2022/08/22 05:58:24;;;;;;;14.75;9.82;;;;;;;19.25;100.00;97030.25;10290936;28;20077;-57
2022/08/22 06:03:35;;;;;;;13.57;9.68;;;;;;;19.23;100.00;97034.75;10291114;28;20065;-56
2022/08/22 06:08:47;;;;;;;15.35;9.23;;;;;;;19.35;100.00;97041.19;10290885;28;20504;-57
2022/08/22 06:13:59;;;;;;;11.38;8.35;;;;;;;19.64;100.00;97037.19;10290468;28;20053;-56
2022/08/22 06:18:59;;;;;;;11.43;8.25;;;;;;;19.97;100.00;97039.91;10289029;28;20487;-56
2022/08/22 06:24:00;;;;;;;14.57;8.07;;;;;;;20.15;100.00;97034.66;10287054;28;20491;-56
2022/08/22 06:29:01;;;;;;;11.43;7.50;;;;;;;19.92;100.00;97044.56;10285590;28;20538;-57
2022/08/22 06:34:14;;;;;;;14.23;7.88;;;;;;;19.86;99.87;97040.47;10250326;28;20475;-57
2022/08/22 06:39:29;;;;;;;12.30;7.82;;;;;;;19.96;100.00;97040.00;10278035;28;20508;-57
2022/08/22 06:44:40;;;;;;;13.13;8.90;;;;;;;20.02;98.97;97043.16;10284146;28;20069;-57
2022/08/22 06:49:43;;;;;;;13.98;8.13;;;;;;;20.14;97.31;97041.72;10271820;28;20511;-58
2022/08/22 06:54:45;;;;;;;15.10;8.05;;;;;;;20.20;95.84;97041.38;10274660;28;20341;-57
2022/08/22 06:59:44;;;;;;;12.60;8.50;;;;;;;20.57;96.15;97038.69;10273700;28;20120;-57
2022/08/22 07:04:43;;;;;;;16.60;9.73;;;;;;;20.87;93.51;97044.09;10248167;28;20050;-57
2022/08/22 07:09:42;;;;;;;15.82;9.30;;;;;;;21.25;93.63;97046.47;10251523;28;20068;-57
2022/08/22 07:14:45;;;;;;;16.75;9.75;;;;;;;21.64;90.60;97042.50;10263291;28;20061;-57
2022/08/22 07:19:56;;;;;;;13.18;8.43;;;;;;;21.59;86.69;97044.56;10284869;28;20061;-57
2022/08/22 07:25:10;;;;;;;13.85;9.68;;;;;;;22.05;88.75;97047.22;10287647;28;20144;-57
2022/08/22 07:30:12;;;;;;;14.75;10.38;;;;;;;22.15;85.09;97045.75;10286929;28;20076;-57
2022/08/22 07:35:22;;;;;;;14.55;10.82;;;;;;;22.03;82.18;97049.09;10288271;28;20077;-57
2022/08/22 07:40:37;;;;;;;16.15;11.10;;;;;;;22.10;82.44;97050.44;10290356;28;20495;-57
2022/08/22 07:45:45;;;;;;;17.70;12.98;;;;;;;21.95;80.19;97053.03;10295418;28;20131;-57
2022/08/22 07:50:56;;;;;;;16.95;13.25;;;;;;;21.91;81.70;97048.00;10274737;28;20136;-57
2022/08/22 07:55:58;;;;;;;17.23;12.27;;;;;;;22.25;80.11;97039.00;10269024;28;20323;-56
2022/08/22 08:00:58;;;;;;;16.95;13.00;;;;;;;22.63;78.80;97033.16;10270149;28;20054;-56
2022/08/22 08:05:59;;;;;;;16.23;12.13;;;;;;;23.13;78.55;97037.13;10285260;28;20074;-57
2022/08/22 08:10:59;;;;;;;15.65;12.23;;;;;;;23.38;74.54;97033.78;10293407;28;20629;-56
2022/08/22 08:15:59;;;;;;;17.85;12.13;;;;;;;23.50;73.15;97034.81;10292483;28;20072;-57
2022/08/22 08:21:06;;;;;;;15.63;12.73;;;;;;;23.59;72.44;97036.88;10292506;28;20065;-56
2022/08/22 08:26:20;;;;;;;16.90;12.48;;;;;;;23.73;70.03;97020.06;10294512;28;20128;-58
2022/08/22 08:31:26;;;;;;;16.30;12.18;;;;;;;23.95;70.20;97040.69;10294083;28;20065;-57
2022/08/22 08:36:43;;;;;;;15.00;12.38;;;;;;;23.99;72.77;97028.94;10294957;28;20076;-57
2022/08/22 08:42:02;;;;;;;17.98;12.93;;;;;;;24.39;70.04;97028.91;10293968;28;20066;-57
2022/08/22 08:47:19;;;;;;;18.50;12.83;;;;;;;24.48;69.15;97025.63;10295940;28;20546;-57
2022/08/22 08:52:26;;;;;;;16.15;12.32;;;;;;;24.59;67.08;97030.22;10294624;28;20331;-58
2022/08/22 08:57:25;;;;;;;16.05;12.05;;;;;;;24.89;65.52;97031.69;10297854;28;20074;-57
2022/08/22 09:02:33;;;;;;;16.27;12.50;;;;;;;24.92;64.08;97025.31;10296461;28;20033;-57
2022/08/22 09:07:54;;;;;;;15.15;12.18;;;;;;;25.33;65.04;97031.16;10296393;28;20069;-57
2022/08/22 09:13:08;;;;;;;14.80;11.57;;;;;;;25.15;62.88;97024.53;10296336;28;20080;-57
2022/08/22 09:19:05;;;;;;;15.52;11.60;;;;;;;25.05;62.83;97020.84;10295714;28;20065;-57
2022/08/22 09:24:37;;;;;;;14.80;12.18;;;;;;;24.59;64.68;97034.66;10294879;28;20139;-58
2022/08/22 09:30:10;;;;;;;16.70;12.15;;;;;;;24.22;65.46;97024.78;10266318;28;20444;-57
2022/08/22 09:35:33;;;;;;;16.00;11.98;;;;;;;23.94;67.44;97036.34;10290033;28;20175;-58
2022/08/22 09:40:38;;;;;;;15.90;11.25;;;;;;;23.96;68.22;97038.88;10298989;28;20080;-57
2022/08/22 09:46:01;;;;;;;15.50;12.00;;;;;;;24.08;68.03;97038.09;10302581;28;20057;-57
2022/08/22 09:51:13;;;;;;;17.05;12.32;;;;;;;24.24;67.03;97032.63;10293689;28;20479;-58
2022/08/22 09:56:17;;;;;;;18.08;11.85;;;;;;;24.31;66.18;97033.91;10293984;28;20080;-57
2022/08/22 10:01:25;;;;;;;14.13;11.45;;;;;;;24.39;66.31;97030.72;10296926;28;20060;-57
2022/08/22 10:06:30;;;;;;;15.27;11.50;;;;;;;24.49;65.04;97022.00;10322869;28;20080;-57
2022/08/22 10:11:42;;;;;;;14.27;11.57;;;;;;;24.89;63.96;97021.94;10253106;28;20074;-57
2022/08/22 10:17:04;;;;;;;14.50;11.77;;;;;;;25.37;61.07;97017.69;10282133;28;20084;-57
2022/08/22 10:22:06;;;;;;;16.10;11.35;;;;;;;25.41;59.73;97012.03;10295502;28;20077;-56
2022/08/22 10:27:28;;;;;;;16.42;10.93;;;;;;;25.70;59.30;97017.88;10266346;28;20708;-57
2022/08/22 10:32:36;;;;;;;15.95;11.20;;;;;;;25.74;57.98;97003.41;10277048;28;20125;-56
2022/08/22 10:38:04;;;;;;;13.90;10.77;;;;;;;25.70;58.64;96993.97;10287574;28;20102;-57
2022/08/22 10:43:24;;;;;;;14.98;12.23;;;;;;;25.87;57.06;97003.34;10288666;28;20057;-56
2022/08/22 10:48:34;;;;;;;13.50;10.70;;;;;;;25.68;56.53;97001.19;10288107;28;20053;-58
2022/08/22 10:53:56;;;;;;;15.25;11.30;;;;;;;25.56;56.93;97004.78;10289204;28;20555;-58
2022/08/22 10:59:04;;;;;;;17.08;12.00;;;;;;;25.54;58.54;97001.38;10287234;28;20069;-58
2022/08/22 11:04:41;;;;;;;17.92;12.73;;;;;;;25.41;58.25;97001.41;10286582;28;20487;-58
2022/08/22 11:09:43;;;;;;;16.55;11.45;;;;;;;25.28;59.42;96995.28;10275454;28;20121;-58
2022/08/22 11:15:04;;;;;;;15.18;12.13;;;;;;;25.43;57.88;96994.16;10284749;28;20125;-58
2022/08/22 11:20:07;;;;;;;15.52;12.10;;;;;;;25.57;58.74;96995.84;10279233;28;20073;-57
2022/08/22 11:25:45;;;;;;;14.75;10.65;;;;;;;25.51;57.02;96985.66;10286525;28;20066;-58
2022/08/22 11:31:03;;;;;;;14.37;10.87;;;;;;;25.71;55.39;96981.53;10281612;28;20128;-58
2022/08/22 11:36:23;;;;;;;17.25;11.70;;;;;;;25.71;56.57;96982.41;10285937;28;20325;-58
2022/08/22 11:41:43;;;;;;;16.67;11.80;;;;;;;25.83;56.36;96980.63;10287392;28;20168;-57
2022/08/22 11:46:46;;;;;;;14.00;11.68;;;;;;;26.04;55.12;96971.97;10286451;28;20073;-57
2022/08/22 11:52:08;;;;;;;14.60;11.68;;;;;;;26.52;56.40;96974.50;10286428;28;20483;-57
2022/08/22 11:57:12;;;;;;;15.68;11.88;;;;;;;26.93;56.30;96965.94;10286937;28;20096;-58
2022/08/22 12:02:17;;;;;;;15.52;11.73;;;;;;;27.27;53.66;96962.38;10283815;28;20057;-58
2022/08/22 12:07:32;;;;;;;16.15;11.98;;;;;;;27.58;52.35;96966.06;10281985;28;20077;-58
2022/08/22 12:12:59;;;;;;;17.05;11.82;;;;;;;27.26;51.54;96972.19;10263931;28;20113;-57
2022/08/22 12:18:21;;;;;;;16.42;12.73;;;;;;;27.17;52.12;96938.31;10265102;28;20062;-57
2022/08/22 12:24:06;;;;;;;16.02;11.40;;;;;;;27.65;51.01;96940.59;10279474;28;20069;-57
2022/08/22 12:29:23;;;;;;;14.40;11.35;;;;;;;27.81;50.66;96946.31;10306402;28;20060;-56
2022/08/22 12:34:50;;;;;;;15.70;11.60;;;;;;;27.35;50.51;96933.28;10317875;28;20073;-56
2022/08/22 12:40:18;;;;;;;16.58;13.20;;;;;;;27.47;50.98;96926.13;10295823;28;20582;-57
2022/08/22 12:45:42;;;;;;;14.40;12.23;;;;;;;27.72;50.39;96944.44;10293555;28;20057;-57
2022/08/22 12:51:23;;;;;;;14.23;12.30;;;;;;;27.87;49.65;96922.78;10296616;28;20087;-57
2022/08/22 12:56:42;;;;;;;13.63;11.82;;;;;;;28.09;51.07;96911.19;10291619;28;20230;-57
2022/08/22 13:01:44;;;;;;;14.43;11.93;;;;;;;28.14;49.81;96924.97;10289609;28;20061;-57
2022/08/22 13:07:01;;;;;;;14.10;12.00;;;;;;;27.84;49.64;96918.56;10289170;28;20061;-57
2022/08/22 13:12:20;;;;;;;15.63;12.02;;;;;;;27.63;51.17;96931.88;10273470;28;20077;-57
2022/08/22 13:17:21;;;;;;;20.08;12.88;;;;;;;27.45;51.07;96910.25;10262610;28;20798;-57
2022/08/22 13:22:26;;;;;;;17.05;13.88;;;;;;;27.29;52.49;96931.97;10263389;28;20530;-57
2022/08/22 13:27:32;;;;;;;16.08;13.32;;;;;;;27.23;53.03;96927.13;10252481;28;20073;-58
2022/08/22 13:32:39;;;;;;;18.45;13.50;;;;;;;27.08;53.86;96929.25;10275802;28;20073;-58
2022/08/22 13:37:45;;;;;;;18.17;13.80;;;;;;;26.82;53.83;96960.59;10291027;28;20531;-57
2022/08/22 13:42:48;;;;;;;20.13;14.25;;;;;;;26.42;55.00;96955.75;10291785;28;20161;-58
2022/08/22 13:48:00;;;;;;;19.60;14.95;;;;;;;25.99;55.71;96934.25;10291260;28;20068;-57
2022/08/22 13:53:07;;;;;;;19.38;14.57;;;;;;;25.45;57.29;96938.28;10292320;28;20133;-57
2022/08/22 13:58:44;;;;;;;17.30;14.63;;;;;;;25.02;60.12;96957.38;10292546;28;20054;-57
2022/08/22 14:04:04;;;;;;;17.48;13.82;;;;;;;24.65;62.50;96954.66;10291919;28;20511;-57
2022/08/22 14:09:14;;;;;;;16.33;13.32;;;;;;;24.35;64.77;96947.88;10292580;28;20058;-57
2022/08/22 14:14:22;;;;;;;17.50;12.98;;;;;;;24.10;65.92;96951.38;10292961;28;20084;-57
2022/08/22 14:19:27;;;;;;;17.67;12.80;;;;;;;23.99;67.55;96960.03;10292054;28;20111;-56
2022/08/22 14:24:31;;;;;;;18.45;14.65;;;;;;;23.88;69.98;96969.66;10293319;28;20053;-57
2022/08/22 14:29:40;;;;;;;20.02;14.45;;;;;;;23.81;72.65;96963.91;10292325;28;20065;-56
2022/08/22 14:34:42;;;;;;;18.85;15.65;;;;;;;23.60;75.42;96966.19;10292406;28;20074;-56
2022/08/22 14:39:47;;;;;;;16.83;13.68;;;;;;;23.74;74.99;96967.94;10291657;28;20072;-56
2022/08/22 14:44:53;;;;;;;17.48;13.15;;;;;;;23.85;74.68;96970.72;10292528;28;20062;-57
2022/08/22 14:49:56;;;;;;;15.27;11.50;;;;;;;23.79;73.64;96960.53;10287363;28;20113;-57
2022/08/22 14:55:16;;;;;;;16.10;13.18;;;;;;;23.68;73.90;96968.34;10290146;28;20053;-57
2022/08/22 15:00:26;;;;;;;16.25;12.23;;;;;;;23.54;74.84;96979.88;10289710;28;20109;-57
2022/08/22 15:05:25;;;;;;;15.27;11.50;;;;;;;23.58;74.15;96976.03;10285015;28;20080;-57
2022/08/22 15:10:31;;;;;;;17.55;11.70;;;;;;;23.50;73.03;96968.63;10288846;28;20062;-57
2022/08/22 15:15:33;;;;;;;14.32;11.48;;;;;;;23.50;73.37;96971.25;10288058;28;20137;-57
2022/08/22 15:20:35;;;;;;;17.35;12.07;;;;;;;23.59;74.05;96970.66;10285136;28;20128;-57
2022/08/22 15:25:38;;;;;;;16.13;11.60;;;;;;;23.70;72.49;96972.59;10284003;28;20124;-57
2022/08/22 15:30:45;;;;;;;14.93;10.95;;;;;;;23.60;72.39;96972.34;10286166;28;20499;-57
2022/08/22 15:35:46;;;;;;;20.98;10.93;;;;;;;23.50;71.71;96973.91;10285649;28;20133;-57
2022/08/22 15:40:45;;;;;;;17.15;11.15;;;;;;;23.37;71.36;96978.25;10288144;28;20053;-57
2022/08/22 15:45:44;;;;;;;14.07;10.73;;;;;;;23.22;71.06;96975.66;10289071;28;20095;-57
2022/08/22 15:51:09;;;;;;;17.23;11.80;;;;;;;23.17;71.95;96975.13;10288751;28;20133;-57
2022/08/22 15:56:10;;;;;;;16.38;11.35;;;;;;;23.20;72.12;96974.06;10289224;28;20061;-57
2022/08/22 16:01:22;;;;;;;18.15;12.77;;;;;;;23.15;72.69;96984.94;10276777;28;20050;-57
2022/08/22 16:06:46;;;;;;;16.80;12.05;;;;;;;23.17;72.86;96990.16;10297469;28;20072;-57
2022/08/22 16:11:54;;;;;;;15.52;11.55;;;;;;;23.14;73.35;96988.56;10256538;28;20817;-57
2022/08/22 16:17:00;;;;;;;17.60;13.45;;;;;;;23.02;74.04;96986.66;10267451;28;20069;-57
2022/08/22 16:21:59;;;;;;;18.27;12.75;;;;;;;22.96;74.91;96987.94;10276758;28;20069;-57
2022/08/22 16:27:17;;;;;;;19.95;12.90;;;;;;;22.97;74.37;96967.59;10288270;28;20037;-57
2022/08/22 16:32:25;;;;;;;17.30;11.20;;;;;;;22.91;75.33;96960.06;10297527;28;20077;-57
2022/08/22 16:37:24;;;;;;;15.40;11.27;;;;;;;22.85;75.48;96963.09;10296350;28;20448;-57
2022/08/22 16:42:36;;;;;;;15.82;11.00;;;;;;;22.82;76.36;96965.94;10296118;28;20492;-57
2022/08/22 16:47:40;;;;;;;17.70;12.85;;;;;;;22.76;77.13;96953.94;10294936;28;20077;-57
2022/08/22 16:52:59;;;;;;;16.15;12.48;;;;;;;22.68;77.56;96964.13;10294165;28;20516;-57
2022/08/22 16:58:10;;;;;;;17.48;12.57;;;;;;;22.49;78.09;96972.34;10285922;28;20828;-57
2022/08/22 17:03:32;;;;;;;17.88;12.50;;;;;;;22.38;78.28;96967.72;10274199;28;20061;-57
2022/08/22 17:08:37;;;;;;;17.92;12.10;;;;;;;22.31;78.87;96974.31;10272534;28;20066;-57
2022/08/22 17:14:09;;;;;;;22.63;15.38;;;;;;;22.11;80.16;96983.47;10251096;28;20062;-57
2022/08/22 17:19:23;;;;;;;27.35;21.30;;;;;;;22.02;81.55;96991.94;10252789;28;20057;-57
2022/08/22 17:24:34;;;;;;;21.00;16.08;;;;;;;21.84;82.60;96999.97;10271060;28;20053;-57
2022/08/22 17:29:39;;;;;;;27.17;16.23;;;;;;;21.74;83.29;97002.28;10262991;28;20508;-57
2022/08/22 17:34:45;;;;;;;21.10;14.38;;;;;;;21.66;83.56;97014.22;10291625;28;20467;-57
2022/08/22 17:40:14;;;;;;;20.88;15.52;;;;;;;21.58;84.32;97024.38;10286413;28;20069;-59
2022/08/22 17:45:41;;;;;;;;;;;;;;;21.51;84.51;97029.16;10292697;28;20053;-57
2022/08/22 17:50:50;;;;;;;19.25;14.88;;;;;;;21.45;84.68;97027.72;10288254;28;19964;-57
2022/08/22 17:56:16;;;;;;;19.90;14.43;;;;;;;21.38;85.06;97031.63;10292077;28;20073;-57
2022/08/22 18:01:35;;;;;;;21.60;15.65;;;;;;;21.30;85.36;97033.84;10290949;28;20061;-57
2022/08/22 18:06:42;;;;;;;17.92;14.23;;;;;;;21.21;85.34;97042.28;10291061;28;20077;-57
2022/08/22 18:11:45;;;;;;;19.45;14.75;;;;;;;21.11;85.13;97045.41;10290217;28;20625;-57
2022/08/22 18:16:51;;;;;;;20.92;14.65;;;;;;;21.07;85.06;97053.56;10290837;28;20065;-57
2022/08/22 18:21:57;;;;;;;19.15;15.10;;;;;;;21.01;85.00;97067.94;10287255;28;20050;-57
2022/08/22 18:27:33;;;;;;;19.77;14.65;;;;;;;21.00;85.01;97068.84;10289057;28;20543;-57
2022/08/22 18:32:53;;;;;;;20.13;15.23;;;;;;;21.01;84.80;97075.84;10283348;28;20069;-57
2022/08/22 18:38:06;;;;;;;;;;;;;;;20.99;84.54;97072.44;10290264;28;20503;-57
2022/08/22 18:43:22;;;;;;;19.52;14.52;;;;;;;20.83;85.93;97076.84;10290009;28;19968;-57
2022/08/22 18:48:28;;;;;;;21.05;14.43;;;;;;;20.73;87.01;97075.59;10290044;28;20077;-57
2022/08/22 18:53:43;;;;;;;18.08;14.00;;;;;;;20.61;88.34;97077.97;10285957;28;20156;-57
2022/08/22 18:59:01;;;;;;;18.27;13.57;;;;;;;20.65;88.65;97084.75;10288939;28;20064;-57
2022/08/22 19:04:52;;;;;;;19.80;13.63;;;;;;;20.60;89.22;97086.78;10289004;28;20057;-57
2022/08/22 19:10:25;;;;;;;20.20;13.55;;;;;;;20.58;89.65;97093.09;10279405;28;20083;-57
2022/08/22 19:15:36;;;;;;;18.25;13.48;;;;;;;20.55;89.73;97088.81;10289294;28;20073;-57
2022/08/22 19:26:23;;;;;;;23.15;15.63;;;;;;;20.58;89.74;97093.94;10286337;28;20556;-57
2022/08/22 19:31:49;;;;;;;20.52;14.23;;;;;;;20.55;89.73;97094.09;10288678;28;20189;-56
2022/08/22 19:37:10;;;;;;;21.30;14.75;;;;;;;20.52;89.74;97094.28;10286657;28;20092;-56
2022/08/22 19:42:18;;;;;;;23.17;15.50;;;;;;;20.47;89.68;97091.03;10288334;28;20076;-56
2022/08/22 19:47:17;;;;;;;23.23;15.97;;;;;;;20.39;89.75;97098.41;10287704;28;20081;-56
2022/08/22 19:52:34;;;;;;;23.98;16.65;;;;;;;20.28;90.26;97107.72;10284183;28;20046;-56
2022/08/22 19:57:45;;;;;;;23.77;16.38;;;;;;;20.15;90.93;97106.63;10282942;28;20125;-57
2022/08/22 20:02:54;;;;;;;25.33;15.95;;;;;;;20.05;91.38;97121.19;10275855;28;20128;-57
2022/08/22 20:08:29;;;;;;;26.33;18.03;;;;;;;20.00;91.70;97115.28;10265377;28;20084;-57
2022/08/22 20:13:31;;;;;;;25.40;18.45;;;;;;;19.87;92.67;97113.25;10237069;28;20393;-57
2022/08/22 20:18:49;;;;;;;26.00;17.77;;;;;;;19.81;93.41;97117.97;10261233;28;20090;-56
2022/08/22 20:23:48;;;;;;;27.77;17.63;;;;;;;19.71;93.99;97106.19;10253425;28;20526;-58
2022/08/22 20:28:51;;;;;;;22.83;16.10;;;;;;;19.76;94.03;97110.28;10287888;28;20496;-58
2022/08/22 20:33:56;;;;;;;26.70;17.08;;;;;;;19.84;93.94;97125.72;10286471;28;20484;-58
2022/08/22 20:39:03;;;;;;;23.00;15.85;;;;;;;19.91;93.66;97118.38;10285709;28;20129;-58
2022/08/22 20:44:14;;;;;;;21.42;16.10;;;;;;;19.95;93.28;97109.38;10285225;28;20058;-57
2022/08/22 20:49:21;;;;;;;23.85;16.02;;;;;;;20.00;92.70;97104.75;10264975;28;20447;-57
2022/08/22 20:54:23;;;;;;;21.42;16.63;;;;;;;19.99;92.29;97111.81;10290498;28;20117;-57
2022/08/22 20:59:24;;;;;;;19.95;15.93;;;;;;;20.00;91.94;97123.19;10294045;28;20169;-57
2022/08/22 21:04:30;;;;;;;20.92;15.73;;;;;;;19.95;91.47;97126.03;10293546;28;20061;-56
2022/08/22 21:14:47;;;;;;;25.42;16.55;;;;;;;19.82;91.27;97117.06;10289910;28;20427;-56
2022/08/22 21:19:46;;;;;;;22.05;15.77;;;;;;;19.79;91.35;97115.41;10252435;28;20073;-58
2022/08/22 21:24:45;;;;;;;25.38;16.98;;;;;;;19.76;91.48;97120.81;10254223;28;20049;-56
2022/08/22 21:29:45;;;;;;;24.13;15.93;;;;;;;19.63;92.39;97124.97;10293177;28;20038;-56
2022/08/22 21:34:46;;;;;;;22.35;15.45;;;;;;;19.56;93.03;97126.19;10291293;28;20144;-58
2022/08/22 21:39:51;;;;;;;23.95;17.05;;;;;;;19.44;94.13;97119.69;10292011;28;20076;-56
2022/08/22 21:44:59;;;;;;;22.50;16.15;;;;;;;19.28;95.01;97111.66;10292048;28;20456;-56
2022/08/22 21:50:04;;;;;;;23.58;17.25;;;;;;;19.24;95.33;97099.56;10291648;28;20077;-56
2022/08/22 21:55:12;;;;;;;25.52;15.98;;;;;;;19.22;95.40;97088.25;10283539;28;20082;-56
2022/08/22 22:00:48;;;;;;;23.17;16.92;;;;;;;19.16;95.40;97093.81;10291352;28;20068;-56
2022/08/22 22:05:49;;;;;;;22.58;16.50;;;;;;;19.15;95.78;97076.31;10290725;28;20081;-56
2022/08/22 22:10:50;;;;;;;27.45;17.52;;;;;;;19.17;95.71;97069.22;10289581;28;20081;-56
2022/08/22 22:15:51;;;;;;;24.25;16.58;;;;;;;19.07;96.35;97074.06;10288876;28;20073;-56
2022/08/22 22:20:52;;;;;;;23.23;15.75;;;;;;;19.01;97.24;97069.91;10287728;28;20133;-58
2022/08/22 22:25:53;;;;;;;24.02;16.05;;;;;;;19.07;97.27;97078.47;10276262;28;20176;-58
2022/08/22 22:30:52;;;;;;;21.52;15.10;;;;;;;19.12;97.13;97084.34;10287629;28;20072;-58
2022/08/22 22:35:53;;;;;;;24.48;16.05;;;;;;;19.23;97.04;97074.19;10268510;28;20081;-58
2022/08/22 22:40:52;;;;;;;21.35;15.85;;;;;;;19.33;97.12;97059.69;10249976;28;20091;-56
2022/08/22 22:45:51;;;;;;;28.42;17.83;;;;;;;19.37;96.71;97040.19;10249515;28;20050;-57
2022/08/22 22:50:51;;;;;;;24.40;17.38;;;;;;;19.40;96.47;97055.84;10249254;28;20061;-56
2022/08/22 22:55:50;;;;;;;24.55;17.52;;;;;;;19.39;96.20;97059.41;10248845;28;20058;-56
2022/08/22 23:00:49;;;;;;;28.27;18.23;;;;;;;19.36;96.18;97056.88;10280626;28;20033;-56
2022/08/22 23:05:48;;;;;;;26.85;17.70;;;;;;;19.28;96.45;97055.56;10289223;28;20492;-56
2022/08/22 23:10:47;;;;;;;24.75;17.05;;;;;;;19.17;96.49;97058.69;10289130;28;20030;-56
2022/08/22 23:15:46;;;;;;;27.85;17.67;;;;;;;19.13;96.72;97057.97;10288845;28;20109;-56
2022/08/22 23:20:45;;;;;;;27.77;18.95;;;;;;;19.20;96.58;97058.53;10288519;28;20030;-56
2022/08/22 23:25:44;;;;;;;27.65;17.45;;;;;;;19.21;96.51;97060.25;10288762;28;20436;-56
2022/08/22 23:30:43;;;;;;;29.35;18.60;;;;;;;19.20;96.69;97074.31;10285315;28;20113;-56
2022/08/22 23:35:42;;;;;;;23.98;17.08;;;;;;;19.22;96.67;97077.75;10287933;28;20052;-56
2022/08/22 23:40:41;;;;;;;21.85;17.08;;;;;;;19.27;96.80;97074.88;10288533;28;20395;-56
2022/08/22 23:45:40;;;;;;;24.33;16.67;;;;;;;19.19;96.92;97078.72;10287756;28;20033;-56
2022/08/22 23:50:38;;;;;;;25.15;17.65;;;;;;;19.27;96.70;97070.47;10288001;28;20049;-56